sensor_id;sensor_type;location;lat;lon;timestamp;P1;durP1;ratioP1;P2;durP2;ratioP2
6388;SDS011;3227;42.654;23.360;2024-02-21T00:01:33;7.30;;;4.03;;
6388;SDS011;3227;42.654;23.360;2024-02-21T00:04:00;6.67;;;3.67;;
6388;SDS011;3227;42.654;23.360;2024-02-21T00:06:26;8.07;;;4.20;;
6388;SDS011;3227;42.654;23.360;2024-02-21T00:08:53;7.40;;;4.07;;
6388;SDS011;3227;42.654;23.360;2024-02-21T00:11:21;7.27;;;3.80;;
6388;SDS011;3227;42.654;23.360;2024-02-21T00:13:48;7.23;;;3.80;;
6388;SDS011;3227;42.654;23.360;2024-02-21T00:16:15;7.33;;;4.20;;
6388;SDS011;3227;42.654;23.360;2024-02-21T00:18:42;8.90;;;3.93;;
6388;SDS011;3227;42.654;23.360;2024-02-21T00:21:09;6.60;;;3.70;;
6388;SDS011;3227;42.654;23.360;2024-02-21T00:23:40;7.97;;;4.47;;
6388;SDS011;3227;42.654;23.360;2024-02-21T00:26:06;7.67;;;4.30;;
6388;SDS011;3227;42.654;23.360;2024-02-21T00:28:34;7.43;;;4.17;;
6388;SDS011;3227;42.654;23.360;2024-02-21T00:31:01;7.73;;;4.10;;
6388;SDS011;3227;42.654;23.360;2024-02-21T00:33:28;7.07;;;4.00;;
6388;SDS011;3227;42.654;23.360;2024-02-21T00:35:55;8.40;;;3.77;;
6388;SDS011;3227;42.654;23.360;2024-02-21T00:38:21;11.40;;;4.13;;
6388;SDS011;3227;42.654;23.360;2024-02-21T00:40:48;6.80;;;3.70;;
6388;SDS011;3227;42.654;23.360;2024-02-21T00:43:15;8.30;;;4.07;;
6388;SDS011;3227;42.654;23.360;2024-02-21T00:45:43;6.87;;;4.27;;
6388;SDS011;3227;42.654;23.360;2024-02-21T00:48:10;7.23;;;3.73;;
6388;SDS011;3227;42.654;23.360;2024-02-21T00:50:36;6.90;;;3.73;;
6388;SDS011;3227;42.654;23.360;2024-02-21T00:53:04;7.57;;;4.10;;
6388;SDS011;3227;42.654;23.360;2024-02-21T00:55:31;5.93;;;3.50;;
6388;SDS011;3227;42.654;23.360;2024-02-21T00:57:57;6.00;;;3.57;;
6388;SDS011;3227;42.654;23.360;2024-02-21T01:00:24;6.30;;;3.70;;
6388;SDS011;3227;42.654;23.360;2024-02-21T01:05:39;6.73;;;3.77;;
6388;SDS011;3227;42.654;23.360;2024-02-21T01:08:05;6.87;;;3.90;;
6388;SDS011;3227;42.654;23.360;2024-02-21T01:10:32;7.27;;;3.93;;
6388;SDS011;3227;42.654;23.360;2024-02-21T01:12:59;6.60;;;3.77;;
6388;SDS011;3227;42.654;23.360;2024-02-21T01:15:25;7.20;;;3.87;;
6388;SDS011;3227;42.654;23.360;2024-02-21T01:17:52;7.00;;;3.70;;
6388;SDS011;3227;42.654;23.360;2024-02-21T01:20:21;6.27;;;3.97;;
6388;SDS011;3227;42.654;23.360;2024-02-21T01:22:48;6.97;;;3.67;;
6388;SDS011;3227;42.654;23.360;2024-02-21T01:25:14;8.53;;;4.13;;
6388;SDS011;3227;42.654;23.360;2024-02-21T01:27:41;8.23;;;4.00;;
6388;SDS011;3227;42.654;23.360;2024-02-21T01:30:08;7.27;;;3.80;;
6388;SDS011;3227;42.654;23.360;2024-02-21T01:32:37;7.47;;;4.60;;
6388;SDS011;3227;42.654;23.360;2024-02-21T01:35:04;8.00;;;4.30;;
6388;SDS011;3227;42.654;23.360;2024-02-21T01:37:32;7.23;;;4.10;;
6388;SDS011;3227;42.654;23.360;2024-02-21T01:39:59;5.90;;;3.73;;
6388;SDS011;3227;42.654;23.360;2024-02-21T01:42:27;7.00;;;3.77;;
6388;SDS011;3227;42.654;23.360;2024-02-21T01:44:54;7.00;;;4.30;;
6388;SDS011;3227;42.654;23.360;2024-02-21T01:47:21;8.20;;;4.43;;
6388;SDS011;3227;42.654;23.360;2024-02-21T01:49:48;7.03;;;4.10;;
6388;SDS011;3227;42.654;23.360;2024-02-21T01:52:15;7.67;;;4.30;;
6388;SDS011;3227;42.654;23.360;2024-02-21T01:54:44;7.17;;;3.70;;
6388;SDS011;3227;42.654;23.360;2024-02-21T01:57:13;8.00;;;4.33;;
6388;SDS011;3227;42.654;23.360;2024-02-21T01:59:39;7.90;;;4.20;;
6388;SDS011;3227;42.654;23.360;2024-02-21T02:02:06;7.47;;;4.20;;
6388;SDS011;3227;42.654;23.360;2024-02-21T02:04:33;6.63;;;3.90;;
6388;SDS011;3227;42.654;23.360;2024-02-21T02:07:01;8.60;;;4.20;;
6388;SDS011;3227;42.654;23.360;2024-02-21T02:09:30;9.47;;;4.60;;
6388;SDS011;3227;42.654;23.360;2024-02-21T02:11:58;7.80;;;4.60;;
6388;SDS011;3227;42.654;23.360;2024-02-21T02:14:25;7.37;;;4.57;;
6388;SDS011;3227;42.654;23.360;2024-02-21T02:16:51;7.27;;;4.57;;
6388;SDS011;3227;42.654;23.360;2024-02-21T02:19:18;10.10;;;5.57;;
6388;SDS011;3227;42.654;23.360;2024-02-21T02:21:46;8.50;;;4.97;;
6388;SDS011;3227;42.654;23.360;2024-02-21T02:24:19;8.40;;;4.80;;
6388;SDS011;3227;42.654;23.360;2024-02-21T02:26:47;8.83;;;5.10;;
6388;SDS011;3227;42.654;23.360;2024-02-21T02:29:13;9.17;;;5.13;;
6388;SDS011;3227;42.654;23.360;2024-02-21T02:31:41;8.90;;;5.53;;
6388;SDS011;3227;42.654;23.360;2024-02-21T02:34:08;8.63;;;5.30;;
6388;SDS011;3227;42.654;23.360;2024-02-21T02:36:35;10.43;;;5.60;;
6388;SDS011;3227;42.654;23.360;2024-02-21T02:39:02;10.30;;;5.73;;
6388;SDS011;3227;42.654;23.360;2024-02-21T02:41:30;11.33;;;5.80;;
6388;SDS011;3227;42.654;23.360;2024-02-21T02:43:57;9.43;;;5.67;;
6388;SDS011;3227;42.654;23.360;2024-02-21T02:46:23;13.40;;;6.20;;
6388;SDS011;3227;42.654;23.360;2024-02-21T02:48:50;9.13;;;5.37;;
6388;SDS011;3227;42.654;23.360;2024-02-21T02:51:17;9.90;;;6.17;;
6388;SDS011;3227;42.654;23.360;2024-02-21T02:53:43;10.47;;;6.07;;
6388;SDS011;3227;42.654;23.360;2024-02-21T02:56:13;11.27;;;6.00;;
6388;SDS011;3227;42.654;23.360;2024-02-21T02:58:42;10.63;;;6.10;;
6388;SDS011;3227;42.654;23.360;2024-02-21T03:01:08;10.87;;;6.37;;
6388;SDS011;3227;42.654;23.360;2024-02-21T03:03:35;11.20;;;6.53;;
6388;SDS011;3227;42.654;23.360;2024-02-21T03:06:02;13.77;;;7.03;;
6388;SDS011;3227;42.654;23.360;2024-02-21T03:08:29;10.70;;;6.87;;
6388;SDS011;3227;42.654;23.360;2024-02-21T03:10:57;14.37;;;6.37;;
6388;SDS011;3227;42.654;23.360;2024-02-21T03:13:24;11.63;;;6.50;;
6388;SDS011;3227;42.654;23.360;2024-02-21T03:15:52;12.33;;;6.40;;
6388;SDS011;3227;42.654;23.360;2024-02-21T03:18:19;10.00;;;6.27;;
6388;SDS011;3227;42.654;23.360;2024-02-21T03:20:45;10.37;;;6.20;;
6388;SDS011;3227;42.654;23.360;2024-02-21T03:23:12;11.00;;;6.40;;
6388;SDS011;3227;42.654;23.360;2024-02-21T03:25:39;12.03;;;7.00;;
6388;SDS011;3227;42.654;23.360;2024-02-21T03:28:05;12.03;;;6.50;;
6388;SDS011;3227;42.654;23.360;2024-02-21T03:30:32;10.67;;;6.63;;
6388;SDS011;3227;42.654;23.360;2024-02-21T03:33:01;10.70;;;5.53;;
6388;SDS011;3227;42.654;23.360;2024-02-21T03:35:27;9.90;;;5.93;;
6388;SDS011;3227;42.654;23.360;2024-02-21T03:37:54;11.00;;;6.43;;
6388;SDS011;3227;42.654;23.360;2024-02-21T03:40:21;11.30;;;6.30;;
6388;SDS011;3227;42.654;23.360;2024-02-21T03:42:48;11.40;;;6.70;;
6388;SDS011;3227;42.654;23.360;2024-02-21T03:45:14;11.77;;;6.53;;
6388;SDS011;3227;42.654;23.360;2024-02-21T03:47:41;10.73;;;6.37;;
6388;SDS011;3227;42.654;23.360;2024-02-21T03:50:09;10.20;;;5.77;;
6388;SDS011;3227;42.654;23.360;2024-02-21T03:52:36;10.30;;;6.43;;
6388;SDS011;3227;42.654;23.360;2024-02-21T03:55:08;12.07;;;6.57;;
6388;SDS011;3227;42.654;23.360;2024-02-21T03:57:34;10.53;;;6.33;;
6388;SDS011;3227;42.654;23.360;2024-02-21T04:00:01;10.23;;;6.63;;
6388;SDS011;3227;42.654;23.360;2024-02-21T04:02:34;13.77;;;7.07;;
6388;SDS011;3227;42.654;23.360;2024-02-21T04:05:00;13.33;;;6.33;;
6388;SDS011;3227;42.654;23.360;2024-02-21T04:07:28;11.17;;;6.63;;
6388;SDS011;3227;42.654;23.360;2024-02-21T04:09:55;11.73;;;7.00;;
6388;SDS011;3227;42.654;23.360;2024-02-21T04:12:22;11.50;;;6.43;;
6388;SDS011;3227;42.654;23.360;2024-02-21T04:14:48;11.03;;;6.57;;
6388;SDS011;3227;42.654;23.360;2024-02-21T04:17:15;12.40;;;6.43;;
6388;SDS011;3227;42.654;23.360;2024-02-21T04:19:42;11.80;;;6.83;;
6388;SDS011;3227;42.654;23.360;2024-02-21T04:22:08;12.80;;;6.80;;
6388;SDS011;3227;42.654;23.360;2024-02-21T04:24:37;11.23;;;6.87;;
6388;SDS011;3227;42.654;23.360;2024-02-21T04:27:04;12.07;;;6.67;;
6388;SDS011;3227;42.654;23.360;2024-02-21T04:29:31;10.70;;;7.10;;
6388;SDS011;3227;42.654;23.360;2024-02-21T04:31:59;11.40;;;6.90;;
6388;SDS011;3227;42.654;23.360;2024-02-21T04:37:14;11.70;;;6.67;;
6388;SDS011;3227;42.654;23.360;2024-02-21T04:39:42;11.37;;;7.13;;
6388;SDS011;3227;42.654;23.360;2024-02-21T04:42:08;12.67;;;7.07;;
6388;SDS011;3227;42.654;23.360;2024-02-21T04:44:35;13.70;;;7.63;;
6388;SDS011;3227;42.654;23.360;2024-02-21T04:47:03;11.87;;;7.20;;
6388;SDS011;3227;42.654;23.360;2024-02-21T04:49:30;11.80;;;7.53;;
6388;SDS011;3227;42.654;23.360;2024-02-21T04:51:56;12.70;;;6.50;;
6388;SDS011;3227;42.654;23.360;2024-02-21T04:54:28;13.43;;;7.63;;
6388;SDS011;3227;42.654;23.360;2024-02-21T04:56:56;18.33;;;9.13;;
6388;SDS011;3227;42.654;23.360;2024-02-21T04:59:23;15.70;;;8.60;;
6388;SDS011;3227;42.654;23.360;2024-02-21T05:01:50;15.80;;;9.03;;
6388;SDS011;3227;42.654;23.360;2024-02-21T05:04:16;16.60;;;9.10;;
6388;SDS011;3227;42.654;23.360;2024-02-21T05:06:43;18.37;;;8.73;;
6388;SDS011;3227;42.654;23.360;2024-02-21T05:09:10;13.13;;;7.57;;
6388;SDS011;3227;42.654;23.360;2024-02-21T05:11:36;15.00;;;8.17;;
6388;SDS011;3227;42.654;23.360;2024-02-21T05:14:05;14.23;;;7.97;;
6388;SDS011;3227;42.654;23.360;2024-02-21T05:16:32;13.67;;;7.53;;
6388;SDS011;3227;42.654;23.360;2024-02-21T05:18:58;15.87;;;7.93;;
6388;SDS011;3227;42.654;23.360;2024-02-21T05:21:25;14.53;;;7.90;;
6388;SDS011;3227;42.654;23.360;2024-02-21T05:23:53;15.23;;;8.50;;
6388;SDS011;3227;42.654;23.360;2024-02-21T05:26:20;14.00;;;8.27;;
6388;SDS011;3227;42.654;23.360;2024-02-21T05:28:47;13.03;;;7.73;;
6388;SDS011;3227;42.654;23.360;2024-02-21T05:31:16;13.00;;;7.40;;
6388;SDS011;3227;42.654;23.360;2024-02-21T05:33:44;13.60;;;7.47;;
6388;SDS011;3227;42.654;23.360;2024-02-21T05:36:10;12.70;;;7.70;;
6388;SDS011;3227;42.654;23.360;2024-02-21T05:38:37;16.03;;;8.37;;
6388;SDS011;3227;42.654;23.360;2024-02-21T05:41:04;15.17;;;8.27;;
6388;SDS011;3227;42.654;23.360;2024-02-21T05:43:31;14.57;;;7.90;;
6388;SDS011;3227;42.654;23.360;2024-02-21T05:45:58;14.73;;;7.47;;
6388;SDS011;3227;42.654;23.360;2024-02-21T05:48:26;12.57;;;7.70;;
6388;SDS011;3227;42.654;23.360;2024-02-21T05:50:53;15.03;;;8.33;;
6388;SDS011;3227;42.654;23.360;2024-02-21T05:53:19;13.27;;;7.83;;
6388;SDS011;3227;42.654;23.360;2024-02-21T05:55:46;12.87;;;7.73;;
6388;SDS011;3227;42.654;23.360;2024-02-21T05:58:13;14.03;;;8.43;;
6388;SDS011;3227;42.654;23.360;2024-02-21T06:00:40;13.40;;;7.47;;
6388;SDS011;3227;42.654;23.360;2024-02-21T06:03:06;13.10;;;8.17;;
6388;SDS011;3227;42.654;23.360;2024-02-21T06:05:37;14.27;;;8.17;;
6388;SDS011;3227;42.654;23.360;2024-02-21T06:08:05;16.37;;;9.70;;
6388;SDS011;3227;42.654;23.360;2024-02-21T06:10:32;17.03;;;8.90;;
6388;SDS011;3227;42.654;23.360;2024-02-21T06:12:58;14.93;;;8.40;;
6388;SDS011;3227;42.654;23.360;2024-02-21T06:15:25;15.10;;;8.13;;
6388;SDS011;3227;42.654;23.360;2024-02-21T06:17:52;15.40;;;9.23;;
6388;SDS011;3227;42.654;23.360;2024-02-21T06:20:18;16.00;;;8.67;;
6388;SDS011;3227;42.654;23.360;2024-02-21T06:22:46;15.53;;;8.90;;
6388;SDS011;3227;42.654;23.360;2024-02-21T06:25:13;15.53;;;8.57;;
6388;SDS011;3227;42.654;23.360;2024-02-21T06:27:40;15.33;;;8.27;;
6388;SDS011;3227;42.654;23.360;2024-02-21T06:30:07;15.80;;;8.27;;
6388;SDS011;3227;42.654;23.360;2024-02-21T06:32:34;14.23;;;8.00;;
6388;SDS011;3227;42.654;23.360;2024-02-21T06:35:01;18.30;;;8.77;;
6388;SDS011;3227;42.654;23.360;2024-02-21T06:37:27;13.70;;;8.77;;
6388;SDS011;3227;42.654;23.360;2024-02-21T06:39:56;14.00;;;8.20;;
6388;SDS011;3227;42.654;23.360;2024-02-21T06:42:24;15.90;;;8.30;;
6388;SDS011;3227;42.654;23.360;2024-02-21T06:44:51;15.83;;;9.00;;
6388;SDS011;3227;42.654;23.360;2024-02-21T06:47:18;15.87;;;8.03;;
6388;SDS011;3227;42.654;23.360;2024-02-21T06:49:48;15.47;;;9.73;;
6388;SDS011;3227;42.654;23.360;2024-02-21T06:52:15;15.30;;;9.10;;
6388;SDS011;3227;42.654;23.360;2024-02-21T06:54:42;16.10;;;8.70;;
6388;SDS011;3227;42.654;23.360;2024-02-21T06:57:10;18.70;;;9.80;;
6388;SDS011;3227;42.654;23.360;2024-02-21T06:59:37;17.40;;;9.83;;
6388;SDS011;3227;42.654;23.360;2024-02-21T07:02:03;15.53;;;9.30;;
6388;SDS011;3227;42.654;23.360;2024-02-21T07:04:30;16.60;;;9.70;;
6388;SDS011;3227;42.654;23.360;2024-02-21T07:06:57;16.47;;;9.50;;
6388;SDS011;3227;42.654;23.360;2024-02-21T07:09:23;14.93;;;8.70;;
6388;SDS011;3227;42.654;23.360;2024-02-21T07:11:50;13.93;;;8.90;;
6388;SDS011;3227;42.654;23.360;2024-02-21T07:14:19;18.93;;;9.93;;
6388;SDS011;3227;42.654;23.360;2024-02-21T07:16:45;15.47;;;9.57;;
6388;SDS011;3227;42.654;23.360;2024-02-21T07:19:12;18.53;;;9.03;;
6388;SDS011;3227;42.654;23.360;2024-02-21T07:21:39;13.93;;;8.40;;
6388;SDS011;3227;42.654;23.360;2024-02-21T07:24:12;17.90;;;9.43;;
6388;SDS011;3227;42.654;23.360;2024-02-21T07:26:40;16.23;;;9.07;;
6388;SDS011;3227;42.654;23.360;2024-02-21T07:29:08;14.20;;;8.07;;
6388;SDS011;3227;42.654;23.360;2024-02-21T07:31:39;16.50;;;9.47;;
6388;SDS011;3227;42.654;23.360;2024-02-21T07:34:07;15.03;;;9.00;;
6388;SDS011;3227;42.654;23.360;2024-02-21T07:36:34;22.80;;;9.60;;
6388;SDS011;3227;42.654;23.360;2024-02-21T07:39:02;17.70;;;9.13;;
6388;SDS011;3227;42.654;23.360;2024-02-21T07:41:29;14.70;;;8.60;;
6388;SDS011;3227;42.654;23.360;2024-02-21T07:43:56;18.77;;;9.73;;
6388;SDS011;3227;42.654;23.360;2024-02-21T07:46:23;15.30;;;9.10;;
6388;SDS011;3227;42.654;23.360;2024-02-21T07:48:51;18.10;;;10.10;;
6388;SDS011;3227;42.654;23.360;2024-02-21T07:51:18;18.83;;;10.30;;
6388;SDS011;3227;42.654;23.360;2024-02-21T07:53:50;19.00;;;9.37;;
6388;SDS011;3227;42.654;23.360;2024-02-21T07:56:17;16.17;;;9.67;;
6388;SDS011;3227;42.654;23.360;2024-02-21T07:58:43;17.38;;;10.85;;
6388;SDS011;3227;42.654;23.360;2024-02-21T08:01:10;14.33;;;9.33;;
6388;SDS011;3227;42.654;23.360;2024-02-21T08:03:37;17.00;;;9.23;;
6388;SDS011;3227;42.654;23.360;2024-02-21T08:06:05;18.90;;;10.13;;
6388;SDS011;3227;42.654;23.360;2024-02-21T08:08:37;17.50;;;9.27;;
6388;SDS011;3227;42.654;23.360;2024-02-21T08:11:04;16.43;;;9.07;;
6388;SDS011;3227;42.654;23.360;2024-02-21T08:13:36;18.07;;;10.27;;
6388;SDS011;3227;42.654;23.360;2024-02-21T08:16:03;19.27;;;9.87;;
6388;SDS011;3227;42.654;23.360;2024-02-21T08:18:30;17.97;;;10.10;;
6388;SDS011;3227;42.654;23.360;2024-02-21T08:20:57;17.23;;;9.17;;
6388;SDS011;3227;42.654;23.360;2024-02-21T08:23:25;15.30;;;8.43;;
6388;SDS011;3227;42.654;23.360;2024-02-21T08:25:51;17.90;;;8.60;;
6388;SDS011;3227;42.654;23.360;2024-02-21T08:28:18;16.83;;;9.07;;
6388;SDS011;3227;42.654;23.360;2024-02-21T08:30:45;15.53;;;8.47;;
6388;SDS011;3227;42.654;23.360;2024-02-21T08:33:13;17.13;;;9.27;;
6388;SDS011;3227;42.654;23.360;2024-02-21T08:35:41;15.67;;;9.23;;
6388;SDS011;3227;42.654;23.360;2024-02-21T08:38:08;13.60;;;7.87;;
6388;SDS011;3227;42.654;23.360;2024-02-21T08:40:36;16.03;;;8.23;;
6388;SDS011;3227;42.654;23.360;2024-02-21T08:43:03;14.03;;;8.67;;
6388;SDS011;3227;42.654;23.360;2024-02-21T08:45:30;15.20;;;10.10;;
6388;SDS011;3227;42.654;23.360;2024-02-21T08:47:57;12.63;;;7.43;;
6388;SDS011;3227;42.654;23.360;2024-02-21T08:50:23;13.67;;;8.33;;
6388;SDS011;3227;42.654;23.360;2024-02-21T08:52:50;13.10;;;8.13;;
6388;SDS011;3227;42.654;23.360;2024-02-21T08:55:17;15.77;;;7.73;;
6388;SDS011;3227;42.654;23.360;2024-02-21T08:57:45;14.07;;;7.07;;
6388;SDS011;3227;42.654;23.360;2024-02-21T09:00:12;12.40;;;7.30;;
6388;SDS011;3227;42.654;23.360;2024-02-21T09:02:40;14.25;;;8.07;;
6388;SDS011;3227;42.654;23.360;2024-02-21T09:05:08;12.60;;;7.60;;
6388;SDS011;3227;42.654;23.360;2024-02-21T09:07:34;14.50;;;8.15;;
6388;SDS011;3227;42.654;23.360;2024-02-21T09:10:01;13.10;;;7.33;;
6388;SDS011;3227;42.654;23.360;2024-02-21T09:12:28;11.63;;;6.90;;
6388;SDS011;3227;42.654;23.360;2024-02-21T09:14:56;13.67;;;7.00;;
6388;SDS011;3227;42.654;23.360;2024-02-21T09:17:23;14.87;;;7.37;;
6388;SDS011;3227;42.654;23.360;2024-02-21T09:19:51;12.23;;;7.23;;
6388;SDS011;3227;42.654;23.360;2024-02-21T09:22:17;14.65;;;8.70;;
6388;SDS011;3227;42.654;23.360;2024-02-21T09:24:44;14.60;;;7.43;;
6388;SDS011;3227;42.654;23.360;2024-02-21T09:27:12;11.63;;;7.07;;
6388;SDS011;3227;42.654;23.360;2024-02-21T09:29:39;13.07;;;7.47;;
6388;SDS011;3227;42.654;23.360;2024-02-21T09:32:07;14.80;;;8.10;;
6388;SDS011;3227;42.654;23.360;2024-02-21T09:34:34;16.97;;;8.50;;
6388;SDS011;3227;42.654;23.360;2024-02-21T09:37:00;18.43;;;8.63;;
6388;SDS011;3227;42.654;23.360;2024-02-21T09:39:27;12.67;;;7.57;;
6388;SDS011;3227;42.654;23.360;2024-02-21T09:41:56;14.77;;;8.67;;
6388;SDS011;3227;42.654;23.360;2024-02-21T09:44:33;15.07;;;8.50;;
6388;SDS011;3227;42.654;23.360;2024-02-21T09:47:04;13.43;;;7.73;;
6388;SDS011;3227;42.654;23.360;2024-02-21T09:49:37;12.50;;;7.40;;
6388;SDS011;3227;42.654;23.360;2024-02-21T09:52:06;15.77;;;8.43;;
6388;SDS011;3227;42.654;23.360;2024-02-21T09:54:34;13.90;;;7.67;;
6388;SDS011;3227;42.654;23.360;2024-02-21T09:57:01;15.53;;;7.87;;
6388;SDS011;3227;42.654;23.360;2024-02-21T09:59:30;13.37;;;8.13;;
6388;SDS011;3227;42.654;23.360;2024-02-21T10:01:57;15.07;;;8.67;;
6388;SDS011;3227;42.654;23.360;2024-02-21T10:04:27;13.97;;;7.63;;
6388;SDS011;3227;42.654;23.360;2024-02-21T10:06:53;12.53;;;7.23;;
6388;SDS011;3227;42.654;23.360;2024-02-21T10:09:21;12.90;;;8.25;;
6388;SDS011;3227;42.654;23.360;2024-02-21T10:11:49;11.13;;;6.80;;
6388;SDS011;3227;42.654;23.360;2024-02-21T10:14:16;13.55;;;7.28;;
6388;SDS011;3227;42.654;23.360;2024-02-21T10:16:43;13.50;;;6.20;;
6388;SDS011;3227;42.654;23.360;2024-02-21T10:19:17;15.40;;;7.50;;
6388;SDS011;3227;42.654;23.360;2024-02-21T10:21:57;11.43;;;7.13;;
6388;SDS011;3227;42.654;23.360;2024-02-21T10:24:26;12.77;;;6.43;;
6388;SDS011;3227;42.654;23.360;2024-02-21T10:26:58;11.93;;;6.93;;
6388;SDS011;3227;42.654;23.360;2024-02-21T10:29:25;14.38;;;7.57;;
6388;SDS011;3227;42.654;23.360;2024-02-21T10:31:52;14.27;;;8.40;;
6388;SDS011;3227;42.654;23.360;2024-02-21T10:34:30;14.47;;;7.67;;
6388;SDS011;3227;42.654;23.360;2024-02-21T10:37:00;12.83;;;6.93;;
6388;SDS011;3227;42.654;23.360;2024-02-21T10:39:28;10.83;;;6.03;;
6388;SDS011;3227;42.654;23.360;2024-02-21T10:41:55;11.97;;;6.10;;
6388;SDS011;3227;42.654;23.360;2024-02-21T10:44:27;11.57;;;6.03;;
6388;SDS011;3227;42.654;23.360;2024-02-21T10:46:55;10.40;;;5.93;;
6388;SDS011;3227;42.654;23.360;2024-02-21T10:49:23;9.67;;;5.83;;
6388;SDS011;3227;42.654;23.360;2024-02-21T10:51:53;11.10;;;5.83;;
6388;SDS011;3227;42.654;23.360;2024-02-21T10:54:29;11.93;;;7.22;;
6388;SDS011;3227;42.654;23.360;2024-02-21T10:57:05;9.60;;;6.17;;
6388;SDS011;3227;42.654;23.360;2024-02-21T10:59:32;9.87;;;5.37;;
6388;SDS011;3227;42.654;23.360;2024-02-21T11:02:01;8.23;;;5.20;;
6388;SDS011;3227;42.654;23.360;2024-02-21T11:04:28;9.97;;;4.87;;
6388;SDS011;3227;42.654;23.360;2024-02-21T11:06:56;10.27;;;5.20;;
6388;SDS011;3227;42.654;23.360;2024-02-21T11:09:30;9.80;;;5.70;;
6388;SDS011;3227;42.654;23.360;2024-02-21T11:11:58;10.43;;;6.00;;
6388;SDS011;3227;42.654;23.360;2024-02-21T11:14:26;9.47;;;5.50;;
6388;SDS011;3227;42.654;23.360;2024-02-21T11:16:54;8.40;;;5.13;;
6388;SDS011;3227;42.654;23.360;2024-02-21T11:19:21;13.33;;;5.20;;
6388;SDS011;3227;42.654;23.360;2024-02-21T11:21:49;8.70;;;5.23;;
6388;SDS011;3227;42.654;23.360;2024-02-21T11:24:25;9.20;;;5.27;;
6388;SDS011;3227;42.654;23.360;2024-02-21T11:26:54;8.33;;;4.77;;
6388;SDS011;3227;42.654;23.360;2024-02-21T11:29:39;7.47;;;4.00;;
6388;SDS011;3227;42.654;23.360;2024-02-21T11:32:09;6.50;;;3.80;;
6388;SDS011;3227;42.654;23.360;2024-02-21T11:34:36;7.13;;;4.03;;
6388;SDS011;3227;42.654;23.360;2024-02-21T11:37:03;7.20;;;4.13;;
6388;SDS011;3227;42.654;23.360;2024-02-21T11:39:40;8.67;;;4.37;;
6388;SDS011;3227;42.654;23.360;2024-02-21T11:42:09;7.13;;;4.10;;
6388;SDS011;3227;42.654;23.360;2024-02-21T11:44:37;7.43;;;4.30;;
6388;SDS011;3227;42.654;23.360;2024-02-21T11:47:05;8.30;;;3.80;;
6388;SDS011;3227;42.654;23.360;2024-02-21T11:49:35;7.97;;;3.70;;
6388;SDS011;3227;42.654;23.360;2024-02-21T11:52:03;8.10;;;3.53;;
6388;SDS011;3227;42.654;23.360;2024-02-21T11:54:30;8.45;;;4.85;;
6388;SDS011;3227;42.654;23.360;2024-02-21T11:56:57;7.37;;;4.10;;
6388;SDS011;3227;42.654;23.360;2024-02-21T11:59:26;8.07;;;4.43;;
6388;SDS011;3227;42.654;23.360;2024-02-21T12:01:53;6.17;;;3.77;;
6388;SDS011;3227;42.654;23.360;2024-02-21T12:04:20;7.30;;;4.00;;
6388;SDS011;3227;42.654;23.360;2024-02-21T12:06:49;7.70;;;3.43;;
6388;SDS011;3227;42.654;23.360;2024-02-21T12:09:16;11.20;;;4.07;;
6388;SDS011;3227;42.654;23.360;2024-02-21T12:11:43;7.27;;;4.27;;
6388;SDS011;3227;42.654;23.360;2024-02-21T12:14:10;6.93;;;4.03;;
6388;SDS011;3227;42.654;23.360;2024-02-21T12:16:38;7.30;;;4.45;;
6388;SDS011;3227;42.654;23.360;2024-02-21T12:19:05;9.60;;;4.60;;
6388;SDS011;3227;42.654;23.360;2024-02-21T12:21:33;7.03;;;4.18;;
6388;SDS011;3227;42.654;23.360;2024-02-21T12:24:11;9.23;;;4.57;;
6388;SDS011;3227;42.654;23.360;2024-02-21T12:26:39;8.35;;;4.82;;
6388;SDS011;3227;42.654;23.360;2024-02-21T12:29:05;8.65;;;4.60;;
6388;SDS011;3227;42.654;23.360;2024-02-21T12:31:34;9.13;;;4.50;;
6388;SDS011;3227;42.654;23.360;2024-02-21T12:34:02;8.85;;;4.75;;
6388;SDS011;3227;42.654;23.360;2024-02-21T12:36:29;9.30;;;5.00;;
6388;SDS011;3227;42.654;23.360;2024-02-21T12:38:56;6.90;;;4.10;;
6388;SDS011;3227;42.654;23.360;2024-02-21T12:41:22;7.67;;;4.13;;
6388;SDS011;3227;42.654;23.360;2024-02-21T12:43:50;7.83;;;4.20;;
6388;SDS011;3227;42.654;23.360;2024-02-21T12:46:17;9.40;;;4.30;;
6388;SDS011;3227;42.654;23.360;2024-02-21T12:48:44;8.17;;;4.50;;
6388;SDS011;3227;42.654;23.360;2024-02-21T12:51:12;7.43;;;4.30;;
6388;SDS011;3227;42.654;23.360;2024-02-21T12:53:39;7.90;;;4.20;;
6388;SDS011;3227;42.654;23.360;2024-02-21T12:56:05;8.93;;;4.13;;
6388;SDS011;3227;42.654;23.360;2024-02-21T12:58:32;7.20;;;3.93;;
6388;SDS011;3227;42.654;23.360;2024-02-21T13:00:59;7.67;;;4.17;;
6388;SDS011;3227;42.654;23.360;2024-02-21T13:03:26;7.20;;;4.43;;
6388;SDS011;3227;42.654;23.360;2024-02-21T13:05:53;8.60;;;4.60;;
6388;SDS011;3227;42.654;23.360;2024-02-21T13:08:21;8.10;;;4.30;;
6388;SDS011;3227;42.654;23.360;2024-02-21T13:10:48;7.70;;;4.00;;
6388;SDS011;3227;42.654;23.360;2024-02-21T13:13:15;7.03;;;4.13;;
6388;SDS011;3227;42.654;23.360;2024-02-21T13:15:42;10.03;;;5.23;;
6388;SDS011;3227;42.654;23.360;2024-02-21T13:18:09;9.27;;;4.67;;
6388;SDS011;3227;42.654;23.360;2024-02-21T13:20:35;8.80;;;5.00;;
6388;SDS011;3227;42.654;23.360;2024-02-21T13:23:03;8.50;;;4.87;;
6388;SDS011;3227;42.654;23.360;2024-02-21T13:25:31;12.50;;;5.17;;
6388;SDS011;3227;42.654;23.360;2024-02-21T13:27:58;9.90;;;4.90;;
6388;SDS011;3227;42.654;23.360;2024-02-21T13:30:24;9.60;;;5.80;;
6388;SDS011;3227;42.654;23.360;2024-02-21T13:32:52;10.57;;;5.75;;
6388;SDS011;3227;42.654;23.360;2024-02-21T13:35:19;9.47;;;5.43;;
6388;SDS011;3227;42.654;23.360;2024-02-21T13:37:46;9.43;;;5.50;;
6388;SDS011;3227;42.654;23.360;2024-02-21T13:40:14;10.05;;;6.00;;
6388;SDS011;3227;42.654;23.360;2024-02-21T13:42:42;10.30;;;6.03;;
6388;SDS011;3227;42.654;23.360;2024-02-21T13:45:09;9.70;;;6.07;;
6388;SDS011;3227;42.654;23.360;2024-02-21T13:47:36;9.23;;;5.33;;
6388;SDS011;3227;42.654;23.360;2024-02-21T13:50:04;8.43;;;4.63;;
6388;SDS011;3227;42.654;23.360;2024-02-21T13:52:34;9.83;;;5.00;;
6388;SDS011;3227;42.654;23.360;2024-02-21T13:55:01;9.17;;;4.87;;
6388;SDS011;3227;42.654;23.360;2024-02-21T13:57:28;9.93;;;4.93;;
6388;SDS011;3227;42.654;23.360;2024-02-21T13:59:56;8.47;;;4.53;;
6388;SDS011;3227;42.654;23.360;2024-02-21T14:02:22;10.73;;;5.13;;
6388;SDS011;3227;42.654;23.360;2024-02-21T14:04:49;8.57;;;4.87;;
6388;SDS011;3227;42.654;23.360;2024-02-21T14:07:16;7.33;;;4.47;;
6388;SDS011;3227;42.654;23.360;2024-02-21T14:09:43;9.93;;;5.37;;
6388;SDS011;3227;42.654;23.360;2024-02-21T14:12:09;10.73;;;5.17;;
6388;SDS011;3227;42.654;23.360;2024-02-21T14:14:37;9.37;;;5.13;;
6388;SDS011;3227;42.654;23.360;2024-02-21T14:17:05;9.80;;;5.43;;
6388;SDS011;3227;42.654;23.360;2024-02-21T14:19:31;7.47;;;4.57;;
6388;SDS011;3227;42.654;23.360;2024-02-21T14:21:58;8.40;;;4.73;;
6388;SDS011;3227;42.654;23.360;2024-02-21T14:24:40;9.53;;;3.97;;
6388;SDS011;3227;42.654;23.360;2024-02-21T14:27:07;8.45;;;4.80;;
6388;SDS011;3227;42.654;23.360;2024-02-21T14:29:34;9.60;;;4.80;;
6388;SDS011;3227;42.654;23.360;2024-02-21T14:32:01;9.17;;;4.43;;
6388;SDS011;3227;42.654;23.360;2024-02-21T14:34:29;9.60;;;4.57;;
6388;SDS011;3227;42.654;23.360;2024-02-21T14:36:56;9.13;;;4.87;;
6388;SDS011;3227;42.654;23.360;2024-02-21T14:39:23;8.60;;;4.67;;
6388;SDS011;3227;42.654;23.360;2024-02-21T14:41:49;9.48;;;5.47;;
6388;SDS011;3227;42.654;23.360;2024-02-21T14:44:16;9.35;;;5.60;;
6388;SDS011;3227;42.654;23.360;2024-02-21T14:46:43;8.80;;;4.77;;
6388;SDS011;3227;42.654;23.360;2024-02-21T14:49:10;8.90;;;5.32;;
6388;SDS011;3227;42.654;23.360;2024-02-21T14:51:39;8.73;;;4.60;;
6388;SDS011;3227;42.654;23.360;2024-02-21T14:54:06;9.07;;;5.00;;
6388;SDS011;3227;42.654;23.360;2024-02-21T14:56:33;10.90;;;4.23;;
6388;SDS011;3227;42.654;23.360;2024-02-21T14:59:00;9.53;;;4.60;;
6388;SDS011;3227;42.654;23.360;2024-02-21T15:01:27;9.63;;;4.80;;